sensor_id;sensor_type;location;lat;lon;timestamp;pressure;altitude;pressure_sealevel;temperature;humidity
73453;BME280;61687;56.232;43.854;2024-01-15T00:01:31;99611.34;;;-10.57;65.24
73453;BME280;61687;56.232;43.854;2024-01-15T00:03:57;99608.47;;;-10.56;65.58
73453;BME280;61687;56.232;43.854;2024-01-15T00:06:41;99603.47;;;-10.52;65.54
73453;BME280;61687;56.232;43.854;2024-01-15T00:09:08;99601.03;;;-10.59;66.11
73453;BME280;61687;56.232;43.854;2024-01-15T00:11:35;99592.97;;;-10.64;66.36
73453;BME280;61687;56.232;43.854;2024-01-15T00:14:01;99594.59;;;-10.63;66.32
73453;BME280;61687;56.232;43.854;2024-01-15T00:16:28;99594.91;;;-10.59;66.40
73453;BME280;61687;56.232;43.854;2024-01-15T00:19:12;99587.69;;;-10.64;66.45
73453;BME280;61687;56.232;43.854;2024-01-15T00:22:16;99594.84;;;-10.65;66.75
73453;BME280;61687;56.232;43.854;2024-01-15T00:24:42;99595.34;;;-10.68;66.89
73453;BME280;61687;56.232;43.854;2024-01-15T00:27:08;99593.81;;;-10.64;67.02
73453;BME280;61687;56.232;43.854;2024-01-15T00:29:34;99593.81;;;-10.64;66.82
73453;BME280;61687;56.232;43.854;2024-01-15T00:32:00;99585.03;;;-10.64;66.82
73453;BME280;61687;56.232;43.854;2024-01-15T00:34:26;99589.28;;;-10.63;66.60
73453;BME280;61687;56.232;43.854;2024-01-15T00:36:52;99584.50;;;-10.66;66.63
73453;BME280;61687;56.232;43.854;2024-01-15T00:39:18;99587.31;;;-10.73;66.98
73453;BME280;61687;56.232;43.854;2024-01-15T00:41:44;99580.78;;;-10.65;67.11
73453;BME280;61687;56.232;43.854;2024-01-15T00:44:10;99575.88;;;-10.56;66.78
73453;BME280;61687;56.232;43.854;2024-01-15T00:46:46;99575.09;;;-10.57;66.47
73453;BME280;61687;56.232;43.854;2024-01-15T00:49:13;99577.25;;;-10.54;66.46
73453;BME280;61687;56.232;43.854;2024-01-15T00:51:39;99575.66;;;-10.55;66.18
73453;BME280;61687;56.232;43.854;2024-01-15T00:54:05;99571.41;;;-10.56;66.03
73453;BME280;61687;56.232;43.854;2024-01-15T00:56:32;99571.25;;;-10.66;66.26
73453;BME280;61687;56.232;43.854;2024-01-15T01:04:46;99559.31;;;-10.69;66.14
73453;BME280;61687;56.232;43.854;2024-01-15T01:07:12;99561.09;;;-10.74;66.41
73453;BME280;61687;56.232;43.854;2024-01-15T01:09:38;99558.28;;;-10.68;66.15
73453;BME280;61687;56.232;43.854;2024-01-15T01:12:23;99562.75;;;-10.68;65.91
73453;BME280;61687;56.232;43.854;2024-01-15T01:15:07;99561.41;;;-10.71;65.64
73453;BME280;61687;56.232;43.854;2024-01-15T01:17:33;99555.47;;;-10.78;66.09
73453;BME280;61687;56.232;43.854;2024-01-15T01:20:18;99555.47;;;-10.78;65.56
73453;BME280;61687;56.232;43.854;2024-01-15T01:22:44;99558.00;;;-10.88;65.93
73453;BME280;61687;56.232;43.854;2024-01-15T01:25:10;99556.88;;;-10.93;66.16
73453;BME280;61687;56.232;43.854;2024-01-15T01:33:23;99532.69;;;-10.79;65.88
73453;BME280;61687;56.232;43.854;2024-01-15T01:36:09;99533.13;;;-10.87;66.21
73453;BME280;61687;56.232;43.854;2024-01-15T01:38:53;99523.09;;;-10.85;65.97
73453;BME280;61687;56.232;43.854;2024-01-15T01:41:19;99525.91;;;-10.92;66.24
73453;BME280;61687;56.232;43.854;2024-01-15T01:43:45;99531.22;;;-10.92;66.50
73453;BME280;61687;56.232;43.854;2024-01-15T01:46:11;99522.22;;;-10.91;66.41
73453;BME280;61687;56.232;43.854;2024-01-15T01:48:37;99527.84;;;-10.87;66.41
73453;BME280;61687;56.232;43.854;2024-01-15T01:53:48;99517.66;;;-10.96;66.26
73453;BME280;61687;56.232;43.854;2024-01-15T01:56:35;99513.97;;;-10.95;66.09
73453;BME280;61687;56.232;43.854;2024-01-15T01:59:20;99517.19;;;-10.93;65.83
73453;BME280;61687;56.232;43.854;2024-01-15T02:01:48;99518.16;;;-10.99;65.61
73453;BME280;61687;56.232;43.854;2024-01-15T02:04:14;99524.25;;;-11.15;65.92
73453;BME280;61687;56.232;43.854;2024-01-15T02:07:00;99517.53;;;-11.06;65.72
73453;BME280;61687;56.232;43.854;2024-01-15T02:09:26;99509.09;;;-11.03;65.99
73453;BME280;61687;56.232;43.854;2024-01-15T02:11:52;99512.72;;;-11.09;65.63
73453;BME280;61687;56.232;43.854;2024-01-15T02:14:18;99515.66;;;-11.05;65.46
73453;BME280;61687;56.232;43.854;2024-01-15T02:16:44;99522.00;;;-11.07;65.74
73453;BME280;61687;56.232;43.854;2024-01-15T02:19:17;99520.72;;;-11.04;65.66
73453;BME280;61687;56.232;43.854;2024-01-15T02:21:43;99522.09;;;-11.01;65.22
73453;BME280;61687;56.232;43.854;2024-01-15T02:24:10;99521.22;;;-11.07;65.38
73453;BME280;61687;56.232;43.854;2024-01-15T02:26:37;99515.44;;;-11.04;65.66
73453;BME280;61687;56.232;43.854;2024-01-15T02:29:06;99517.09;;;-10.98;65.14
73453;BME280;61687;56.232;43.854;2024-01-15T02:39:48;99507.63;;;-10.94;65.01
73453;BME280;61687;56.232;43.854;2024-01-15T02:42:14;99508.53;;;-11.05;65.37
73453;BME280;61687;56.232;43.854;2024-01-15T02:44:39;99510.94;;;-11.03;65.08
73453;BME280;61687;56.232;43.854;2024-01-15T02:47:24;99504.63;;;-11.02;65.58
73453;BME280;61687;56.232;43.854;2024-01-15T02:52:34;99499.94;;;-10.95;65.28
73453;BME280;61687;56.232;43.854;2024-01-15T02:55:00;99511.03;;;-10.98;65.61
73453;BME280;61687;56.232;43.854;2024-01-15T02:57:26;99509.66;;;-11.01;65.78
73453;BME280;61687;56.232;43.854;2024-01-15T02:59:52;99511.97;;;-11.04;66.10
73453;BME280;61687;56.232;43.854;2024-01-15T03:02:37;99490.56;;;-11.03;66.26
73453;BME280;61687;56.232;43.854;2024-01-15T03:05:24;99489.53;;;-11.02;66.22
73453;BME280;61687;56.232;43.854;2024-01-15T03:07:50;99500.13;;;-11.02;66.53
73453;BME280;61687;56.232;43.854;2024-01-15T03:10:16;99487.69;;;-11.01;66.52
73453;BME280;61687;56.232;43.854;2024-01-15T03:12:43;99492.19;;;-11.02;66.69
73453;BME280;61687;56.232;43.854;2024-01-15T03:15:09;99490.34;;;-11.01;67.26
73453;BME280;61687;56.232;43.854;2024-01-15T03:23:04;99500.25;;;-10.91;67.56
73453;BME280;61687;56.232;43.854;2024-01-15T03:25:30;99497.31;;;-10.95;67.46
73453;BME280;61687;56.232;43.854;2024-01-15T03:27:56;99484.31;;;-10.97;67.69
73453;BME280;61687;56.232;43.854;2024-01-15T03:30:41;99489.41;;;-10.90;67.74
73453;BME280;61687;56.232;43.854;2024-01-15T03:33:06;99492.41;;;-11.03;68.04
73453;BME280;61687;56.232;43.854;2024-01-15T03:35:32;99491.69;;;-10.99;68.47
73453;BME280;61687;56.232;43.854;2024-01-15T03:37:58;99485.59;;;-10.99;68.14
73453;BME280;61687;56.232;43.854;2024-01-15T03:40:24;99493.28;;;-10.98;68.81
73453;BME280;61687;56.232;43.854;2024-01-15T03:42:51;99477.41;;;-10.98;68.52
73453;BME280;61687;56.232;43.854;2024-01-15T03:45:17;99478.47;;;-10.99;69.20
73453;BME280;61687;56.232;43.854;2024-01-15T03:47:43;99480.94;;;-10.92;68.95
73453;BME280;61687;56.232;43.854;2024-01-15T03:50:09;99486.84;;;-10.85;68.91
73453;BME280;61687;56.232;43.854;2024-01-15T03:52:35;99482.59;;;-10.86;68.79
73453;BME280;61687;56.232;43.854;2024-01-15T03:55:01;99478.44;;;-10.82;68.93
73453;BME280;61687;56.232;43.854;2024-01-15T03:57:45;99477.59;;;-10.82;68.75
73453;BME280;61687;56.232;43.854;2024-01-15T04:00:11;99478.97;;;-10.80;68.98
73453;BME280;61687;56.232;43.854;2024-01-15T04:02:37;99475.06;;;-10.72;69.09
73453;BME280;61687;56.232;43.854;2024-01-15T04:07:48;99473.47;;;-10.73;68.72
73453;BME280;61687;56.232;43.854;2024-01-15T04:10:14;99473.19;;;-10.76;68.47
73453;BME280;61687;56.232;43.854;2024-01-15T04:12:40;99477.13;;;-10.79;68.98
73453;BME280;61687;56.232;43.854;2024-01-15T04:15:06;99468.06;;;-10.83;69.01
73453;BME280;61687;56.232;43.854;2024-01-15T04:17:32;99474.78;;;-10.75;68.69
73453;BME280;61687;56.232;43.854;2024-01-15T04:19:58;99463.88;;;-10.79;69.19
73453;BME280;61687;56.232;43.854;2024-01-15T04:22:25;99470.81;;;-10.73;69.32
73453;BME280;61687;56.232;43.854;2024-01-15T04:24:51;99463.47;;;-10.71;68.88
73453;BME280;61687;56.232;43.854;2024-01-15T04:27:17;99480.63;;;-10.73;69.08
73453;BME280;61687;56.232;43.854;2024-01-15T04:29:43;99476.38;;;-10.74;69.14
73453;BME280;61687;56.232;43.854;2024-01-15T04:32:30;99477.16;;;-10.74;68.98
73453;BME280;61687;56.232;43.854;2024-01-15T04:34:55;99476.19;;;-10.68;68.80
73453;BME280;61687;56.232;43.854;2024-01-15T04:37:21;99474.09;;;-10.66;68.56
73453;BME280;61687;56.232;43.854;2024-01-15T04:39:47;99474.91;;;-10.65;68.20
73453;BME280;61687;56.232;43.854;2024-01-15T04:42:14;99476.19;;;-10.68;68.65
73453;BME280;61687;56.232;43.854;2024-01-15T04:44:40;99479.09;;;-10.69;68.76
73453;BME280;61687;56.232;43.854;2024-01-15T04:47:05;99477.31;;;-10.64;68.37
73453;BME280;61687;56.232;43.854;2024-01-15T04:49:31;99479.78;;;-10.57;68.19
73453;BME280;61687;56.232;43.854;2024-01-15T04:51:57;99469.47;;;-10.53;68.46
73453;BME280;61687;56.232;43.854;2024-01-15T04:54:23;99470.31;;;-10.47;67.97
73453;BME280;61687;56.232;43.854;2024-01-15T04:56:49;99470.00;;;-10.51;68.09
73453;BME280;61687;56.232;43.854;2024-01-15T04:59:15;99473.78;;;-10.47;68.44
73453;BME280;61687;56.232;43.854;2024-01-15T05:01:41;99471.63;;;-10.50;68.36
73453;BME280;61687;56.232;43.854;2024-01-15T05:04:07;99478.59;;;-10.44;68.14
73453;BME280;61687;56.232;43.854;2024-01-15T05:06:33;99474.84;;;-10.48;68.14
73453;BME280;61687;56.232;43.854;2024-01-15T05:09:18;99466.69;;;-10.41;68.02
73453;BME280;61687;56.232;43.854;2024-01-15T05:11:43;99476.22;;;-10.40;67.88
73453;BME280;61687;56.232;43.854;2024-01-15T05:14:09;99470.88;;;-10.45;68.15
73453;BME280;61687;56.232;43.854;2024-01-15T05:16:38;99477.00;;;-10.40;68.06
73453;BME280;61687;56.232;43.854;2024-01-15T05:19:04;99478.09;;;-10.41;68.09
73453;BME280;61687;56.232;43.854;2024-01-15T05:21:30;99475.94;;;-10.44;68.16
73453;BME280;61687;56.232;43.854;2024-01-15T05:23:56;99473.78;;;-10.47;68.53
73453;BME280;61687;56.232;43.854;2024-01-15T05:26:21;99471.47;;;-10.38;68.36
73453;BME280;61687;56.232;43.854;2024-01-15T05:31:32;99473.84;;;-10.42;68.20
73453;BME280;61687;56.232;43.854;2024-01-15T05:33:58;99474.34;;;-10.40;68.09
73453;BME280;61687;56.232;43.854;2024-01-15T05:36:24;99485.75;;;-10.39;68.23
73453;BME280;61687;56.232;43.854;2024-01-15T05:38:50;99470.13;;;-10.41;68.20
73453;BME280;61687;56.232;43.854;2024-01-15T05:41:16;99488.13;;;-10.43;67.95
73453;BME280;61687;56.232;43.854;2024-01-15T05:44:00;99482.84;;;-10.43;68.22
73453;BME280;61687;56.232;43.854;2024-01-15T05:46:26;99472.75;;;-10.46;68.30
73453;BME280;61687;56.232;43.854;2024-01-15T05:48:52;99478.91;;;-10.35;68.33
73453;BME280;61687;56.232;43.854;2024-01-15T05:51:18;99478.38;;;-10.37;68.58
73453;BME280;61687;56.232;43.854;2024-01-15T05:53:44;99477.09;;;-10.29;68.65
73453;BME280;61687;56.232;43.854;2024-01-15T05:56:10;99481.09;;;-10.27;68.60
73453;BME280;61687;56.232;43.854;2024-01-15T05:58:37;99474.53;;;-10.24;68.74
73453;BME280;61687;56.232;43.854;2024-01-15T06:01:03;99471.91;;;-10.19;68.84
73453;BME280;61687;56.232;43.854;2024-01-15T06:03:29;99479.13;;;-10.14;68.67
73453;BME280;61687;56.232;43.854;2024-01-15T06:05:55;99471.53;;;-10.06;68.38
73453;BME280;61687;56.232;43.854;2024-01-15T06:08:40;99468.91;;;-10.00;68.37
73453;BME280;61687;56.232;43.854;2024-01-15T06:11:06;99466.06;;;-9.94;67.89
73453;BME280;61687;56.232;43.854;2024-01-15T06:13:32;99479.31;;;-9.94;67.78
73453;BME280;61687;56.232;43.854;2024-01-15T06:15:58;99467.38;;;-9.91;67.44
73453;BME280;61687;56.232;43.854;2024-01-15T06:18:24;99470.03;;;-9.91;67.92
73453;BME280;61687;56.232;43.854;2024-01-15T06:20:50;99470.59;;;-9.89;67.97
73453;BME280;61687;56.232;43.854;2024-01-15T06:23:34;99475.44;;;-9.81;68.19
73453;BME280;61687;56.232;43.854;2024-01-15T06:26:00;99478.16;;;-9.70;67.66
73453;BME280;61687;56.232;43.854;2024-01-15T06:34:16;99457.31;;;-9.56;67.17
73453;BME280;61687;56.232;43.854;2024-01-15T06:36:43;99457.59;;;-9.58;67.34
73453;BME280;61687;56.232;43.854;2024-01-15T06:39:08;99454.66;;;-9.56;67.18
73453;BME280;61687;56.232;43.854;2024-01-15T06:41:54;99459.50;;;-9.48;67.30
73453;BME280;61687;56.232;43.854;2024-01-15T06:44:20;99455.03;;;-9.42;67.35
73453;BME280;61687;56.232;43.854;2024-01-15T06:46:47;99446.56;;;-9.39;67.19
73453;BME280;61687;56.232;43.854;2024-01-15T06:49:13;99458.50;;;-9.37;67.06
73453;BME280;61687;56.232;43.854;2024-01-15T06:51:39;99462.03;;;-9.26;67.03
73453;BME280;61687;56.232;43.854;2024-01-15T06:54:05;99451.41;;;-9.26;67.09
73453;BME280;61687;56.232;43.854;2024-01-15T06:56:32;99459.66;;;-9.22;66.41
73453;BME280;61687;56.232;43.854;2024-01-15T06:58:58;99455.66;;;-9.25;67.05
73453;BME280;61687;56.232;43.854;2024-01-15T07:01:24;99457.84;;;-9.16;66.87
73453;BME280;61687;56.232;43.854;2024-01-15T07:03:50;99460.75;;;-9.13;66.80
73453;BME280;61687;56.232;43.854;2024-01-15T07:06:16;99455.75;;;-9.04;66.74
73453;BME280;61687;56.232;43.854;2024-01-15T07:08:43;99464.56;;;-8.98;66.42
73453;BME280;61687;56.232;43.854;2024-01-15T07:11:09;99463.81;;;-8.88;66.15
73453;BME280;61687;56.232;43.854;2024-01-15T07:16:21;99462.00;;;-8.78;65.64
73453;BME280;61687;56.232;43.854;2024-01-15T07:18:46;99469.75;;;-8.66;65.27
73453;BME280;61687;56.232;43.854;2024-01-15T07:21:12;99473.97;;;-8.70;64.37
73453;BME280;61687;56.232;43.854;2024-01-15T07:23:38;99468.66;;;-8.75;64.83
73453;BME280;61687;56.232;43.854;2024-01-15T07:26:04;99471.84;;;-8.73;65.06
73453;BME280;61687;56.232;43.854;2024-01-15T07:28:30;99475.81;;;-8.70;64.34
73453;BME280;61687;56.232;43.854;2024-01-15T07:30:57;99480.34;;;-8.71;64.58
73453;BME280;61687;56.232;43.854;2024-01-15T07:33:23;99484.09;;;-8.67;64.77
73453;BME280;61687;56.232;43.854;2024-01-15T07:35:49;99475.63;;;-8.58;64.26
73453;BME280;61687;56.232;43.854;2024-01-15T07:38:15;99462.63;;;-8.50;64.43
73453;BME280;61687;56.232;43.854;2024-01-15T07:40:40;99472.97;;;-8.43;63.62
73453;BME280;61687;56.232;43.854;2024-01-15T07:43:06;99474.84;;;-8.38;63.55
73453;BME280;61687;56.232;43.854;2024-01-15T07:45:32;99476.19;;;-8.36;63.28
73453;BME280;61687;56.232;43.854;2024-01-15T07:47:58;99465.03;;;-8.32;63.38
73453;BME280;61687;56.232;43.854;2024-01-15T07:50:24;99467.41;;;-8.31;62.77
73453;BME280;61687;56.232;43.854;2024-01-15T07:52:50;99467.16;;;-8.35;62.63
73453;BME280;61687;56.232;43.854;2024-01-15T07:58:00;99460.50;;;-8.37;63.05
73453;BME280;61687;56.232;43.854;2024-01-15T08:03:11;99450.16;;;-8.28;62.83
73453;BME280;61687;56.232;43.854;2024-01-15T08:05:38;99457.34;;;-8.19;62.61
73453;BME280;61687;56.232;43.854;2024-01-15T08:08:04;99458.41;;;-8.14;62.78
73453;BME280;61687;56.232;43.854;2024-01-15T08:10:49;99455.78;;;-7.99;63.01
73453;BME280;61687;56.232;43.854;2024-01-15T08:13:15;99465.34;;;-7.87;62.17
73453;BME280;61687;56.232;43.854;2024-01-15T08:15:41;99453.41;;;-7.90;62.16
73453;BME280;61687;56.232;43.854;2024-01-15T08:18:07;99451.56;;;-7.84;62.33
73453;BME280;61687;56.232;43.854;2024-01-15T08:20:33;99458.19;;;-7.82;62.12
73453;BME280;61687;56.232;43.854;2024-01-15T08:22:59;99448.59;;;-7.83;61.86
73453;BME280;61687;56.232;43.854;2024-01-15T08:25:24;99444.34;;;-7.84;62.52
73453;BME280;61687;56.232;43.854;2024-01-15T08:27:52;99435.31;;;-7.83;62.41
73453;BME280;61687;56.232;43.854;2024-01-15T08:30:17;99437.16;;;-7.88;62.40
73453;BME280;61687;56.232;43.854;2024-01-15T08:32:48;99438.50;;;-7.91;62.45
73453;BME280;61687;56.232;43.854;2024-01-15T08:35:13;99436.13;;;-7.98;62.88
73453;BME280;61687;56.232;43.854;2024-01-15T08:37:39;99448.09;;;-7.90;62.81
73453;BME280;61687;56.232;43.854;2024-01-15T08:40:06;99446.47;;;-7.86;63.12
73453;BME280;61687;56.232;43.854;2024-01-15T08:42:50;99448.09;;;-7.74;63.13
73453;BME280;61687;56.232;43.854;2024-01-15T08:48:00;99444.34;;;-7.48;62.84
73453;BME280;61687;56.232;43.854;2024-01-15T08:50:26;99428.66;;;-7.54;62.76
73453;BME280;61687;56.232;43.854;2024-01-15T08:52:52;99433.44;;;-7.56;63.12
73453;BME280;61687;56.232;43.854;2024-01-15T08:58:03;99438.75;;;-7.41;62.56
73453;BME280;61687;56.232;43.854;2024-01-15T09:00:29;99436.34;;;-7.42;62.91
73453;BME280;61687;56.232;43.854;2024-01-15T09:02:56;99429.44;;;-7.49;62.69
73453;BME280;61687;56.232;43.854;2024-01-15T09:08:07;99436.63;;;-7.54;63.07
73453;BME280;61687;56.232;43.854;2024-01-15T09:10:32;99440.63;;;-7.52;63.18
73453;BME280;61687;56.232;43.854;2024-01-15T09:13:17;99444.63;;;-7.54;63.15
73453;BME280;61687;56.232;43.854;2024-01-15T09:15:43;99437.97;;;-7.52;63.46
73453;BME280;61687;56.232;43.854;2024-01-15T09:18:09;99436.06;;;-7.46;63.06
73453;BME280;61687;56.232;43.854;2024-01-15T09:20:35;99432.38;;;-7.55;62.97
73453;BME280;61687;56.232;43.854;2024-01-15T09:23:01;99437.69;;;-7.55;63.09
73453;BME280;61687;56.232;43.854;2024-01-15T09:25:27;99435.56;;;-7.53;63.46
73453;BME280;61687;56.232;43.854;2024-01-15T09:27:53;99438.22;;;-7.48;63.49
73453;BME280;61687;56.232;43.854;2024-01-15T09:30:19;99444.88;;;-7.45;63.56
73453;BME280;61687;56.232;43.854;2024-01-15T09:32:45;99441.16;;;-7.50;63.62
73453;BME280;61687;56.232;43.854;2024-01-15T09:35:11;99446.72;;;-7.51;63.60
73453;BME280;61687;56.232;43.854;2024-01-15T09:37:37;99440.63;;;-7.57;64.08
73453;BME280;61687;56.232;43.854;2024-01-15T09:40:05;99452.59;;;-7.59;64.64
73453;BME280;61687;56.232;43.854;2024-01-15T09:42:32;99454.47;;;-7.50;64.54
73453;BME280;61687;56.232;43.854;2024-01-15T09:44:59;99457.09;;;-7.55;64.66
73453;BME280;61687;56.232;43.854;2024-01-15T09:47:25;99456.84;;;-7.53;64.74
73453;BME280;61687;56.232;43.854;2024-01-15T09:49:51;99454.19;;;-7.48;64.65
73453;BME280;61687;56.232;43.854;2024-01-15T09:52:18;99466.16;;;-7.45;64.76
73453;BME280;61687;56.232;43.854;2024-01-15T09:54:46;99459.22;;;-7.41;64.84
73453;BME280;61687;56.232;43.854;2024-01-15T09:57:12;99450.69;;;-7.28;64.86
73453;BME280;61687;56.232;43.854;2024-01-15T09:59:38;99444.56;;;-7.18;64.86
73453;BME280;61687;56.232;43.854;2024-01-15T10:02:07;99450.13;;;-7.09;64.18
73453;BME280;61687;56.232;43.854;2024-01-15T10:04:33;99453.59;;;-7.19;63.95
73453;BME280;61687;56.232;43.854;2024-01-15T10:07:00;99447.22;;;-7.28;64.43
73453;BME280;61687;56.232;43.854;2024-01-15T10:09:26;99449.66;;;-7.32;64.66
73453;BME280;61687;56.232;43.854;2024-01-15T10:14:37;99450.19;;;-7.45;64.82
73453;BME280;61687;56.232;43.854;2024-01-15T10:17:16;99445.13;;;-7.47;64.87
73453;BME280;61687;56.232;43.854;2024-01-15T10:19:43;99442.47;;;-7.52;64.93
73453;BME280;61687;56.232;43.854;2024-01-15T10:22:09;99441.13;;;-7.55;65.11
73453;BME280;61687;56.232;43.854;2024-01-15T10:24:36;99438.50;;;-7.60;65.44
73453;BME280;61687;56.232;43.854;2024-01-15T10:27:07;99439.31;;;-7.59;65.15
73453;BME280;61687;56.232;43.854;2024-01-15T10:32:19;99451.25;;;-7.47;65.30
73453;BME280;61687;56.232;43.854;2024-01-15T10:34:45;99456.03;;;-7.43;65.40
73453;BME280;61687;56.232;43.854;2024-01-15T10:37:11;99458.97;;;-7.40;65.09
73453;BME280;61687;56.232;43.854;2024-01-15T10:39:37;99457.06;;;-7.24;65.06
73453;BME280;61687;56.232;43.854;2024-01-15T10:42:03;99455.22;;;-7.18;64.78
73453;BME280;61687;56.232;43.854;2024-01-15T10:47:14;99452.22;;;-7.11;64.81
73453;BME280;61687;56.232;43.854;2024-01-15T10:49:40;99455.94;;;-7.02;64.84
73453;BME280;61687;56.232;43.854;2024-01-15T10:52:25;99448.75;;;-7.01;64.43
73453;BME280;61687;56.232;43.854;2024-01-15T10:54:51;99438.94;;;-7.06;64.26
73453;BME280;61687;56.232;43.854;2024-01-15T10:57:21;99433.63;;;-7.16;64.69
73453;BME280;61687;56.232;43.854;2024-01-15T10:59:48;99428.06;;;-7.20;65.00
73453;BME280;61687;56.232;43.854;2024-01-15T11:02:14;99427.50;;;-7.17;64.92
73453;BME280;61687;56.232;43.854;2024-01-15T11:04:40;99419.25;;;-7.10;64.95
73453;BME280;61687;56.232;43.854;2024-01-15T11:07:06;99420.28;;;-7.11;64.63
73453;BME280;61687;56.232;43.854;2024-01-15T11:09:33;99433.34;;;-7.15;64.60
73453;BME280;61687;56.232;43.854;2024-01-15T11:12:10;99426.47;;;-7.21;65.02
73453;BME280;61687;56.232;43.854;2024-01-15T11:14:41;99431.47;;;-7.14;65.22
73453;BME280;61687;56.232;43.854;2024-01-15T11:17:09;99434.16;;;-7.20;64.85
73453;BME280;61687;56.232;43.854;2024-01-15T11:25:16;99432.28;;;-7.14;64.88
73453;BME280;61687;56.232;43.854;2024-01-15T11:27:46;99427.50;;;-7.12;65.05
73453;BME280;61687;56.232;43.854;2024-01-15T11:35:48;99430.94;;;-7.11;64.97
73453;BME280;61687;56.232;43.854;2024-01-15T11:38:27;99421.91;;;-7.10;64.96
73453;BME280;61687;56.232;43.854;2024-01-15T11:40:54;99412.03;;;-7.10;64.79
73453;BME280;61687;56.232;43.854;2024-01-15T11:46:25;99416.03;;;-7.07;64.89
73453;BME280;61687;56.232;43.854;2024-01-15T11:49:03;99416.31;;;-7.14;65.02
73453;BME280;61687;56.232;43.854;2024-01-15T11:51:50;99412.84;;;-7.14;65.34
73453;BME280;61687;56.232;43.854;2024-01-15T11:54:19;99421.09;;;-7.11;65.39
73453;BME280;61687;56.232;43.854;2024-01-15T11:56:46;99420.84;;;-7.09;65.25
73453;BME280;61687;56.232;43.854;2024-01-15T11:59:12;99418.16;;;-7.09;65.69
73453;BME280;61687;56.232;43.854;2024-01-15T12:01:38;99418.16;;;-7.14;65.76
73453;BME280;61687;56.232;43.854;2024-01-15T12:04:04;99420.31;;;-7.16;65.99
73453;BME280;61687;56.232;43.854;2024-01-15T12:06:30;99420.59;;;-7.18;66.17
73453;BME280;61687;56.232;43.854;2024-01-15T12:09:08;99409.94;;;-7.18;66.36
73453;BME280;61687;56.232;43.854;2024-01-15T12:11:36;99410.72;;;-7.18;66.44
73453;BME280;61687;56.232;43.854;2024-01-15T12:14:04;99408.59;;;-7.15;66.62
73453;BME280;61687;56.232;43.854;2024-01-15T12:16:30;99414.44;;;-7.08;66.59
73453;BME280;61687;56.232;43.854;2024-01-15T12:18:56;99415.19;;;-7.02;66.74
73453;BME280;61687;56.232;43.854;2024-01-15T12:21:22;99411.47;;;-6.96;66.23
73453;BME280;61687;56.232;43.854;2024-01-15T12:23:48;99415.72;;;-7.00;66.58
73453;BME280;61687;56.232;43.854;2024-01-15T12:26:14;99411.72;;;-6.98;66.61
73453;BME280;61687;56.232;43.854;2024-01-15T12:28:40;99413.31;;;-6.97;66.67
73453;BME280;61687;56.232;43.854;2024-01-15T12:31:06;99418.16;;;-7.09;66.57
73453;BME280;61687;56.232;43.854;2024-01-15T12:33:33;99422.44;;;-7.08;66.77
73453;BME280;61687;56.232;43.854;2024-01-15T12:35:59;99420.84;;;-7.09;67.15
73453;BME280;61687;56.232;43.854;2024-01-15T12:38:25;99413.91;;;-7.15;67.28
73453;BME280;61687;56.232;43.854;2024-01-15T12:40:51;99420.84;;;-7.20;67.23
73453;BME280;61687;56.232;43.854;2024-01-15T12:43:17;99411.00;;;-7.24;67.83
73453;BME280;61687;56.232;43.854;2024-01-15T12:45:43;99408.91;;;-7.33;67.94
73453;BME280;61687;56.232;43.854;2024-01-15T12:48:09;99412.38;;;-7.32;68.20
73453;BME280;61687;56.232;43.854;2024-01-15T12:50:35;99414.50;;;-7.29;68.06
73453;BME280;61687;56.232;43.854;2024-01-15T12:55:45;99412.59;;;-7.18;67.68
73453;BME280;61687;56.232;43.854;2024-01-15T12:58:12;99410.75;;;-7.23;67.65
73453;BME280;61687;56.232;43.854;2024-01-15T13:00:37;99409.97;;;-7.28;67.83
73453;BME280;61687;56.232;43.854;2024-01-15T13:03:22;99417.13;;;-7.24;67.98
73453;BME280;61687;56.232;43.854;2024-01-15T13:05:48;99419.81;;;-7.24;67.98
73453;BME280;61687;56.232;43.854;2024-01-15T13:08:14;99414.50;;;-7.29;68.07
73453;BME280;61687;56.232;43.854;2024-01-15T13:10:40;99420.59;;;-7.28;68.08
73453;BME280;61687;56.232;43.854;2024-01-15T13:13:08;99412.91;;;-7.30;68.22
73453;BME280;61687;56.232;43.854;2024-01-15T13:18:19;99426.19;;;-7.25;68.03
73453;BME280;61687;56.232;43.854;2024-01-15T13:20:45;99419.81;;;-7.29;68.32
73453;BME280;61687;56.232;43.854;2024-01-15T13:23:11;99419.00;;;-7.29;68.72
73453;BME280;61687;56.232;43.854;2024-01-15T13:25:37;99405.97;;;-7.26;68.45
73453;BME280;61687;56.232;43.854;2024-01-15T13:28:05;99412.06;;;-7.25;68.58
73453;BME280;61687;56.232;43.854;2024-01-15T13:30:31;99397.44;;;-7.23;68.50
73453;BME280;61687;56.232;43.854;2024-01-15T13:32:57;99408.09;;;-7.23;68.56
73453;BME280;61687;56.232;43.854;2024-01-15T13:35:23;99412.06;;;-7.25;68.55
73453;BME280;61687;56.232;43.854;2024-01-15T13:37:49;99421.13;;;-7.21;68.66
73453;BME280;61687;56.232;43.854;2024-01-15T13:40:15;99419.81;;;-7.24;68.89
73453;BME280;61687;56.232;43.854;2024-01-15T13:42:42;99417.69;;;-7.27;68.84
73453;BME280;61687;56.232;43.854;2024-01-15T13:45:08;99422.19;;;-7.22;69.09
73453;BME280;61687;56.232;43.854;2024-01-15T13:50:19;99417.44;;;-7.36;69.79
73453;BME280;61687;56.232;43.854;2024-01-15T13:52:45;99416.63;;;-7.31;69.79
73453;BME280;61687;56.232;43.854;2024-01-15T13:55:12;99421.41;;;-7.23;69.19
73453;BME280;61687;56.232;43.854;2024-01-15T13:57:56;99424.84;;;-7.22;69.34
73453;BME280;61687;56.232;43.854;2024-01-15T14:00:22;99412.88;;;-7.20;68.99
73453;BME280;61687;56.232;43.854;2024-01-15T14:02:49;99412.31;;;-7.16;68.91
73453;BME280;61687;56.232;43.854;2024-01-15T14:07:59;99410.19;;;-7.14;68.19
73453;BME280;61687;56.232;43.854;2024-01-15T14:10:25;99407.81;;;-7.21;68.45
73453;BME280;61687;56.232;43.854;2024-01-15T14:13:09;99400.38;;;-7.19;68.07
73453;BME280;61687;56.232;43.854;2024-01-15T14:15:35;99398.22;;;-7.22;68.38
73453;BME280;61687;56.232;43.854;2024-01-15T14:20:48;99408.88;;;-7.22;68.08
73453;BME280;61687;56.232;43.854;2024-01-15T14:23:14;99407.81;;;-7.21;68.04
73453;BME280;61687;56.232;43.854;2024-01-15T14:25:40;99398.47;;;-7.19;67.92